sensor_id;sensor_type;location;lat;lon;timestamp;pressure;altitude;pressure_sealevel;temperature;humidity
40982;BME280;26708;50.304;19.028;2023-05-07T00:00:35;98500.44;;;11.89;66.15
40982;BME280;26708;50.304;19.028;2023-05-07T00:02:41;98503.06;;;11.86;66.13
40982;BME280;26708;50.304;19.028;2023-05-07T00:04:45;98489.22;;;11.71;66.32
40982;BME280;26708;50.304;19.028;2023-05-07T00:06:50;98509.19;;;11.83;66.34
40982;BME280;26708;50.304;19.028;2023-05-07T00:08:56;98506.56;;;11.85;66.24
40982;BME280;26708;50.304;19.028;2023-05-07T00:11:02;98505.72;;;11.83;65.83
40982;BME280;26708;50.304;19.028;2023-05-07T00:13:07;98394.50;;;11.09;66.00
40982;BME280;26708;50.304;19.028;2023-05-07T00:15:12;98452.72;;;11.44;66.04
40982;BME280;26708;50.304;19.028;2023-05-07T00:17:19;98395.44;;;11.00;65.89
40982;BME280;26708;50.304;19.028;2023-05-07T00:19:23;98519.75;;;11.78;66.06
40982;BME280;26708;50.304;19.028;2023-05-07T00:21:29;98494.50;;;11.65;66.35
40982;BME280;26708;50.304;19.028;2023-05-07T00:23:34;98524.13;;;11.76;66.01
40982;BME280;26708;50.304;19.028;2023-05-07T00:25:41;98523.28;;;11.72;66.12
40982;BME280;26708;50.304;19.028;2023-05-07T00:27:47;98445.03;;;11.23;66.15
40982;BME280;26708;50.304;19.028;2023-05-07T00:29:51;98525.94;;;11.68;66.31
40982;BME280;26708;50.304;19.028;2023-05-07T00:31:56;98454.56;;;11.30;66.38
40982;BME280;26708;50.304;19.028;2023-05-07T00:34:04;98538.19;;;11.67;66.32
40982;BME280;26708;50.304;19.028;2023-05-07T00:36:08;98498.97;;;11.51;66.08
40982;BME280;26708;50.304;19.028;2023-05-07T00:38:13;98428.56;;;11.06;65.75
40982;BME280;26708;50.304;19.028;2023-05-07T00:40:18;98526.88;;;11.59;66.07
40982;BME280;26708;50.304;19.028;2023-05-07T00:42:23;98488.63;;;11.31;65.91
40982;BME280;26708;50.304;19.028;2023-05-07T00:44:29;98532.16;;;11.53;66.27
40982;BME280;26708;50.304;19.028;2023-05-07T00:46:34;98538.25;;;11.54;66.52
40982;BME280;26708;50.304;19.028;2023-05-07T00:48:40;98208.72;;;9.70;66.23
40982;BME280;26708;50.304;19.028;2023-05-07T00:50:47;98536.53;;;11.56;66.24
40982;BME280;26708;50.304;19.028;2023-05-07T00:52:53;98502.56;;;11.38;66.19
40982;BME280;26708;50.304;19.028;2023-05-07T00:55:01;98534.75;;;11.56;66.45
40982;BME280;26708;50.304;19.028;2023-05-07T00:57:10;98307.78;;;10.21;66.24
40982;BME280;26708;50.304;19.028;2023-05-07T00:59:15;98529.50;;;11.56;66.03
40982;BME280;26708;50.304;19.028;2023-05-07T01:01:20;98532.13;;;11.56;66.36
40982;BME280;26708;50.304;19.028;2023-05-07T01:03:24;98534.75;;;11.56;66.09
40982;BME280;26708;50.304;19.028;2023-05-07T01:05:30;98537.38;;;11.56;65.85
40982;BME280;26708;50.304;19.028;2023-05-07T01:07:40;98543.50;;;11.55;65.73
40982;BME280;26708;50.304;19.028;2023-05-07T01:09:46;98546.16;;;11.52;65.45
40982;BME280;26708;50.304;19.028;2023-05-07T01:11:52;98320.03;;;10.12;65.46
40982;BME280;26708;50.304;19.028;2023-05-07T01:14:00;98477.53;;;10.93;65.40
40982;BME280;26708;50.304;19.028;2023-05-07T01:16:06;98476.63;;;10.96;65.61
40982;BME280;26708;50.304;19.028;2023-05-07T01:18:14;98515.00;;;11.09;65.75
40982;BME280;26708;50.304;19.028;2023-05-07T01:20:19;98543.75;;;11.19;65.60
40982;BME280;26708;50.304;19.028;2023-05-07T01:22:32;98518.50;;;11.00;66.23
40982;BME280;26708;50.304;19.028;2023-05-07T01:24:38;98545.47;;;11.22;66.02
40982;BME280;26708;50.304;19.028;2023-05-07T01:26:44;98387.09;;;10.28;65.79
40982;BME280;26708;50.304;19.028;2023-05-07T01:28:53;98542.81;;;11.28;65.67
40982;BME280;26708;50.304;19.028;2023-05-07T01:31:02;98399.28;;;10.38;65.34
40982;BME280;26708;50.304;19.028;2023-05-07T01:33:13;98555.91;;;11.29;65.16
40982;BME280;26708;50.304;19.028;2023-05-07T01:35:26;98546.31;;;11.28;65.26
40982;BME280;26708;50.304;19.028;2023-05-07T01:37:37;98392.34;;;10.23;65.33
40982;BME280;26708;50.304;19.028;2023-05-07T01:39:43;98548.91;;;11.33;65.36
40982;BME280;26708;50.304;19.028;2023-05-07T01:41:51;98511.44;;;11.19;65.03
40982;BME280;26708;50.304;19.028;2023-05-07T01:43:58;98545.38;;;11.38;64.88
40982;BME280;26708;50.304;19.028;2023-05-07T01:46:04;98541.91;;;11.36;64.76
40982;BME280;26708;50.304;19.028;2023-05-07T01:48:12;98514.94;;;11.19;64.81
40982;BME280;26708;50.304;19.028;2023-05-07T01:50:20;98524.50;;;11.23;64.74
40982;BME280;26708;50.304;19.028;2023-05-07T01:52:25;98548.88;;;11.36;64.22
40982;BME280;26708;50.304;19.028;2023-05-07T01:54:32;98440.13;;;10.66;64.10
40982;BME280;26708;50.304;19.028;2023-05-07T01:56:37;98512.41;;;11.04;64.60
40982;BME280;26708;50.304;19.028;2023-05-07T01:58:42;98541.13;;;11.16;64.34
40982;BME280;26708;50.304;19.028;2023-05-07T02:00:47;98431.59;;;10.14;64.55
40982;BME280;26708;50.304;19.028;2023-05-07T02:02:52;98555.16;;;11.03;64.73
40982;BME280;26708;50.304;19.028;2023-05-07T02:05:20;98550.81;;;10.98;64.85
40982;BME280;26708;50.304;19.028;2023-05-07T02:07:32;98513.34;;;10.76;64.88
40982;BME280;26708;50.304;19.028;2023-05-07T02:09:40;98309.81;;;9.34;64.69
40982;BME280;26708;50.304;19.028;2023-05-07T02:11:46;98543.91;;;10.80;64.73
40982;BME280;26708;50.304;19.028;2023-05-07T02:13:52;98487.38;;;10.28;65.14
40982;BME280;26708;50.304;19.028;2023-05-07T02:15:57;98552.66;;;10.67;65.51
40982;BME280;26708;50.304;19.028;2023-05-07T02:18:05;98309.84;;;9.23;65.34
40982;BME280;26708;50.304;19.028;2023-05-07T02:20:11;98590.16;;;10.63;65.45
40982;BME280;26708;50.304;19.028;2023-05-07T02:22:18;98517.84;;;10.38;65.38
40982;BME280;26708;50.304;19.028;2023-05-07T02:24:22;98550.09;;;10.52;65.58
40982;BME280;26708;50.304;19.028;2023-05-07T02:26:29;98549.22;;;10.49;65.52
40982;BME280;26708;50.304;19.028;2023-05-07T02:28:35;98547.47;;;10.48;65.88
40982;BME280;26708;50.304;19.028;2023-05-07T02:30:40;98485.66;;;10.06;65.90
40982;BME280;26708;50.304;19.028;2023-05-07T02:32:45;98315.09;;;8.96;65.59
40982;BME280;26708;50.304;19.028;2023-05-07T02:34:51;98545.78;;;10.27;65.78
40982;BME280;26708;50.304;19.028;2023-05-07T02:36:55;98556.25;;;10.32;66.27
40982;BME280;26708;50.304;19.028;2023-05-07T02:39:01;98575.41;;;10.28;66.09
40982;BME280;26708;50.304;19.028;2023-05-07T02:41:07;98560.59;;;10.22;66.06
40982;BME280;26708;50.304;19.028;2023-05-07T02:43:14;98346.41;;;8.90;66.26
40982;BME280;26708;50.304;19.028;2023-05-07T02:45:21;98418.63;;;9.45;66.31
40982;BME280;26708;50.304;19.028;2023-05-07T02:47:29;98440.41;;;9.44;66.05
40982;BME280;26708;50.304;19.028;2023-05-07T02:49:36;98561.47;;;10.24;66.30
40982;BME280;26708;50.304;19.028;2023-05-07T02:51:42;98565.84;;;10.24;66.31
40982;BME280;26708;50.304;19.028;2023-05-07T02:53:53;98553.63;;;10.24;66.50
40982;BME280;26708;50.304;19.028;2023-05-07T02:56:01;98351.63;;;8.96;66.05
40982;BME280;26708;50.304;19.028;2023-05-07T02:58:07;98564.09;;;10.32;65.92
40982;BME280;26708;50.304;19.028;2023-05-07T03:00:20;98569.31;;;10.29;65.81
40982;BME280;26708;50.304;19.028;2023-05-07T03:02:39;98571.06;;;10.30;66.15
40982;BME280;26708;50.304;19.028;2023-05-07T03:04:44;98506.63;;;9.87;65.69
40982;BME280;26708;50.304;19.028;2023-05-07T03:06:49;98429.94;;;9.29;66.02
40982;BME280;26708;50.304;19.028;2023-05-07T03:08:53;98571.09;;;10.13;66.43
40982;BME280;26708;50.304;19.028;2023-05-07T03:10:58;98578.06;;;10.11;66.63
40982;BME280;26708;50.304;19.028;2023-05-07T03:13:04;98578.06;;;10.10;66.65
40982;BME280;26708;50.304;19.028;2023-05-07T03:15:11;98426.47;;;8.94;66.36
40982;BME280;26708;50.304;19.028;2023-05-07T03:17:20;98573.69;;;9.97;66.91
40982;BME280;26708;50.304;19.028;2023-05-07T03:19:27;98591.13;;;9.98;66.75
40982;BME280;26708;50.304;19.028;2023-05-07T03:21:31;98457.81;;;9.18;66.63
40982;BME280;26708;50.304;19.028;2023-05-07T03:23:36;98597.22;;;9.97;66.87
40982;BME280;26708;50.304;19.028;2023-05-07T03:25:42;98575.44;;;9.81;66.26
40982;BME280;26708;50.304;19.028;2023-05-07T03:27:46;98351.53;;;8.39;66.33
40982;BME280;26708;50.304;19.028;2023-05-07T03:29:54;98603.31;;;9.82;66.65
40982;BME280;26708;50.304;19.028;2023-05-07T03:31:59;98601.59;;;9.81;66.72
40982;BME280;26708;50.304;19.028;2023-05-07T03:34:07;98501.25;;;8.89;66.69
40982;BME280;26708;50.304;19.028;2023-05-07T03:36:11;98429.00;;;8.64;66.89
40982;BME280;26708;50.304;19.028;2023-05-07T03:38:16;98606.81;;;9.68;67.00
40982;BME280;26708;50.304;19.028;2023-05-07T03:40:21;98360.13;;;8.13;67.17
40982;BME280;26708;50.304;19.028;2023-05-07T03:42:29;98583.22;;;9.48;67.23
40982;BME280;26708;50.304;19.028;2023-05-07T03:44:35;98611.16;;;9.64;67.18
40982;BME280;26708;50.304;19.028;2023-05-07T03:46:39;98582.34;;;9.49;67.13
40982;BME280;26708;50.304;19.028;2023-05-07T03:48:46;98615.50;;;9.70;66.78
40982;BME280;26708;50.304;19.028;2023-05-07T03:50:56;98543.13;;;9.33;66.64
40982;BME280;26708;50.304;19.028;2023-05-07T03:53:06;98590.19;;;9.49;66.24
40982;BME280;26708;50.304;19.028;2023-05-07T03:55:13;98619.00;;;9.64;66.32
40982;BME280;26708;50.304;19.028;2023-05-07T03:57:24;98623.31;;;9.67;66.61
40982;BME280;26708;50.304;19.028;2023-05-07T03:59:29;98516.94;;;9.03;66.20
40982;BME280;26708;50.304;19.028;2023-05-07T04:01:34;98632.00;;;9.61;66.24
40982;BME280;26708;50.304;19.028;2023-05-07T04:03:39;98570.03;;;9.06;66.32
40982;BME280;26708;50.304;19.028;2023-05-07T04:05:44;98578.81;;;9.35;66.42
40982;BME280;26708;50.304;19.028;2023-05-07T04:07:51;98629.38;;;9.57;66.49
40982;BME280;26708;50.304;19.028;2023-05-07T04:10:03;98474.22;;;8.71;66.42
40982;BME280;26708;50.304;19.028;2023-05-07T04:12:08;98594.50;;;9.35;66.35
40982;BME280;26708;50.304;19.028;2023-05-07T04:14:12;98533.41;;;8.90;66.50
40982;BME280;26708;50.304;19.028;2023-05-07T04:16:18;98443.59;;;8.26;66.48
40982;BME280;26708;50.304;19.028;2023-05-07T04:18:22;98642.41;;;9.45;66.93
40982;BME280;26708;50.304;19.028;2023-05-07T04:20:27;98648.53;;;9.53;67.08
40982;BME280;26708;50.304;19.028;2023-05-07T04:22:38;98658.97;;;9.54;66.72
40982;BME280;26708;50.304;19.028;2023-05-07T04:24:45;98657.25;;;9.59;66.56
40982;BME280;26708;50.304;19.028;2023-05-07T04:26:49;98651.16;;;9.57;66.39
40982;BME280;26708;50.304;19.028;2023-05-07T04:28:57;98658.97;;;9.51;66.32
40982;BME280;26708;50.304;19.028;2023-05-07T04:31:07;98662.44;;;9.46;66.42
40982;BME280;26708;50.304;19.028;2023-05-07T04:33:14;98542.94;;;8.71;66.67
40982;BME280;26708;50.304;19.028;2023-05-07T04:35:21;98667.66;;;9.44;66.79
40982;BME280;26708;50.304;19.028;2023-05-07T04:37:26;98487.13;;;8.33;66.11
40982;BME280;26708;50.304;19.028;2023-05-07T04:39:32;98627.50;;;9.12;66.67
40982;BME280;26708;50.304;19.028;2023-05-07T04:41:41;98549.81;;;8.53;66.49
40982;BME280;26708;50.304;19.028;2023-05-07T04:43:46;98673.69;;;9.31;66.53
40982;BME280;26708;50.304;19.028;2023-05-07T04:45:53;98678.94;;;9.30;66.52
40982;BME280;26708;50.304;19.028;2023-05-07T04:48:01;98545.41;;;8.46;66.58
40982;BME280;26708;50.304;19.028;2023-05-07T04:50:07;98562.00;;;8.60;66.76
40982;BME280;26708;50.304;19.028;2023-05-07T04:52:14;98685.88;;;9.29;66.92
40982;BME280;26708;50.304;19.028;2023-05-07T04:54:20;98418.03;;;7.61;66.69
40982;BME280;26708;50.304;19.028;2023-05-07T04:56:27;98704.16;;;9.29;66.92
40982;BME280;26708;50.304;19.028;2023-05-07T04:58:37;98697.22;;;9.34;66.80
40982;BME280;26708;50.304;19.028;2023-05-07T05:00:43;98705.94;;;9.41;66.68
40982;BME280;26708;50.304;19.028;2023-05-07T05:02:47;98709.41;;;9.38;66.01
40982;BME280;26708;50.304;19.028;2023-05-07T05:04:55;98705.91;;;9.32;66.06
40982;BME280;26708;50.304;19.028;2023-05-07T05:07:01;98710.25;;;9.25;65.76
40982;BME280;26708;50.304;19.028;2023-05-07T05:09:06;98718.09;;;9.25;65.97
40982;BME280;26708;50.304;19.028;2023-05-07T05:11:11;98719.81;;;9.29;65.92
40982;BME280;26708;50.304;19.028;2023-05-07T05:13:16;98595.00;;;8.53;66.00
40982;BME280;26708;50.304;19.028;2023-05-07T05:15:24;98722.47;;;9.31;66.34
40982;BME280;26708;50.304;19.028;2023-05-07T05:17:28;98721.59;;;9.35;65.95
40982;BME280;26708;50.304;19.028;2023-05-07T05:19:36;98722.44;;;9.29;65.95
40982;BME280;26708;50.304;19.028;2023-05-07T05:21:41;98733.72;;;9.27;65.83
40982;BME280;26708;50.304;19.028;2023-05-07T05:23:46;98681.34;;;8.97;66.08
40982;BME280;26708;50.304;19.028;2023-05-07T05:25:55;98724.13;;;9.21;66.47
40982;BME280;26708;50.304;19.028;2023-05-07T05:28:03;98665.59;;;8.76;66.25
40982;BME280;26708;50.304;19.028;2023-05-07T05:30:10;98634.94;;;8.45;66.60
40982;BME280;26708;50.304;19.028;2023-05-07T05:32:21;98678.56;;;8.68;66.56
40982;BME280;26708;50.304;19.028;2023-05-07T05:34:29;98745.75;;;8.99;66.76
40982;BME280;26708;50.304;19.028;2023-05-07T05:36:34;98744.88;;;8.94;66.73
40982;BME280;26708;50.304;19.028;2023-05-07T05:38:40;98619.00;;;8.09;66.97
40982;BME280;26708;50.304;19.028;2023-05-07T05:40:46;98760.44;;;8.82;67.37
40982;BME280;26708;50.304;19.028;2023-05-07T05:42:51;98734.97;;;8.54;67.20
40982;BME280;26708;50.304;19.028;2023-05-07T05:44:57;98755.25;;;8.87;66.90
40982;BME280;26708;50.304;19.028;2023-05-07T05:47:03;98761.31;;;8.83;66.96
40982;BME280;26708;50.304;19.028;2023-05-07T05:49:11;98653.84;;;8.18;66.81
40982;BME280;26708;50.304;19.028;2023-05-07T05:51:18;98625.84;;;7.96;67.03
40982;BME280;26708;50.304;19.028;2023-05-07T05:53:22;98761.31;;;8.84;67.16
40982;BME280;26708;50.304;19.028;2023-05-07T05:55:27;98761.34;;;8.87;66.96
40982;BME280;26708;50.304;19.028;2023-05-07T05:57:34;98763.97;;;8.90;67.00
40982;BME280;26708;50.304;19.028;2023-05-07T05:59:41;98696.75;;;8.55;66.32
40982;BME280;26708;50.304;19.028;2023-05-07T06:01:46;98661.75;;;8.27;66.35
40982;BME280;26708;50.304;19.028;2023-05-07T06:03:52;98592.78;;;7.89;66.25
40982;BME280;26708;50.304;19.028;2023-05-07T06:06:01;98766.59;;;8.92;66.54
40982;BME280;26708;50.304;19.028;2023-05-07T06:08:06;98746.50;;;8.80;66.49
40982;BME280;26708;50.304;19.028;2023-05-07T06:10:12;98603.03;;;7.72;66.03
40982;BME280;26708;50.304;19.028;2023-05-07T06:12:16;98774.44;;;8.92;66.10
40982;BME280;26708;50.304;19.028;2023-05-07T06:14:22;98787.44;;;8.87;66.24
40982;BME280;26708;50.304;19.028;2023-05-07T06:16:29;98642.41;;;8.04;66.14
40982;BME280;26708;50.304;19.028;2023-05-07T06:18:33;98779.53;;;8.80;66.18
40982;BME280;26708;50.304;19.028;2023-05-07T06:20:39;98781.25;;;8.73;65.82
40982;BME280;26708;50.304;19.028;2023-05-07T06:22:53;98771.59;;;8.63;66.05
40982;BME280;26708;50.304;19.028;2023-05-07T06:24:57;98754.97;;;8.52;66.21
40982;BME280;26708;50.304;19.028;2023-05-07T06:27:03;98785.50;;;8.61;66.16
40982;BME280;26708;50.304;19.028;2023-05-07T06:29:08;98790.66;;;8.55;66.51
40982;BME280;26708;50.304;19.028;2023-05-07T06:31:17;98792.31;;;8.50;66.71
40982;BME280;26708;50.304;19.028;2023-05-07T06:33:32;98797.50;;;8.44;66.58
40982;BME280;26708;50.304;19.028;2023-05-07T06:35:39;98674.16;;;7.65;66.54
40982;BME280;26708;50.304;19.028;2023-05-07T06:37:44;98770.34;;;8.25;66.36
40982;BME280;26708;50.304;19.028;2023-05-07T06:39:56;98801.81;;;8.40;66.39
40982;BME280;26708;50.304;19.028;2023-05-07T06:42:02;98683.63;;;7.57;66.20
40982;BME280;26708;50.304;19.028;2023-05-07T06:44:08;98657.66;;;7.66;66.07
40982;BME280;26708;50.304;19.028;2023-05-07T06:46:17;98804.56;;;8.57;65.54
40982;BME280;26708;50.304;19.028;2023-05-07T06:48:23;98652.34;;;7.55;65.30
40982;BME280;26708;50.304;19.028;2023-05-07T06:50:34;98765.13;;;8.25;65.17
40982;BME280;26708;50.304;19.028;2023-05-07T06:52:39;98814.06;;;8.50;65.35
40982;BME280;26708;50.304;19.028;2023-05-07T06:54:44;98773.06;;;8.36;64.97
40982;BME280;26708;50.304;19.028;2023-05-07T06:56:54;98813.25;;;8.56;64.91
40982;BME280;26708;50.304;19.028;2023-05-07T06:59:01;98822.00;;;8.61;64.97
40982;BME280;26708;50.304;19.028;2023-05-07T07:01:11;98709.94;;;7.82;64.37
40982;BME280;26708;50.304;19.028;2023-05-07T07:03:17;98697.81;;;7.85;64.03
40982;BME280;26708;50.304;19.028;2023-05-07T07:05:22;98817.69;;;8.64;64.21
40982;BME280;26708;50.304;19.028;2023-05-07T07:07:28;98818.59;;;8.68;64.18
40982;BME280;26708;50.304;19.028;2023-05-07T07:09:33;98821.22;;;8.71;64.36
40982;BME280;26708;50.304;19.028;2023-05-07T07:11:39;98824.75;;;8.77;64.37
40982;BME280;26708;50.304;19.028;2023-05-07T07:13:47;98830.84;;;8.78;63.97
40982;BME280;26708;50.304;19.028;2023-05-07T07:15:52;98797.59;;;8.56;63.54
40982;BME280;26708;50.304;19.028;2023-05-07T07:17:57;98593.13;;;7.36;63.99
40982;BME280;26708;50.304;19.028;2023-05-07T07:20:03;98831.66;;;8.71;63.53
40982;BME280;26708;50.304;19.028;2023-05-07T07:22:08;98829.88;;;8.68;63.43
40982;BME280;26708;50.304;19.028;2023-05-07T07:24:13;98823.72;;;8.60;63.65
40982;BME280;26708;50.304;19.028;2023-05-07T07:26:24;98756.34;;;8.16;63.33
40982;BME280;26708;50.304;19.028;2023-05-07T07:28:29;98835.91;;;8.61;63.35
40982;BME280;26708;50.304;19.028;2023-05-07T07:30:37;98656.75;;;7.61;63.59
40982;BME280;26708;50.304;19.028;2023-05-07T07:32:43;98714.28;;;7.84;63.82
40982;BME280;26708;50.304;19.028;2023-05-07T07:34:48;98635.91;;;7.61;63.62
40982;BME280;26708;50.304;19.028;2023-05-07T07:36:52;98760.72;;;8.18;63.53
40982;BME280;26708;50.304;19.028;2023-05-07T07:38:59;98657.75;;;7.72;63.08
40982;BME280;26708;50.304;19.028;2023-05-07T07:41:04;98591.13;;;7.13;62.67
40982;BME280;26708;50.304;19.028;2023-05-07T07:43:08;98746.75;;;8.16;62.92
40982;BME280;26708;50.304;19.028;2023-05-07T07:45:14;98861.31;;;8.82;62.84
40982;BME280;26708;50.304;19.028;2023-05-07T07:47:24;98859.59;;;8.82;62.81
40982;BME280;26708;50.304;19.028;2023-05-07T07:49:28;98862.22;;;8.82;62.83
40982;BME280;26708;50.304;19.028;2023-05-07T07:51:38;98858.72;;;8.80;62.72
40982;BME280;26708;50.304;19.028;2023-05-07T07:53:42;98856.94;;;8.76;62.72
40982;BME280;26708;50.304;19.028;2023-05-07T07:55:47;98860.38;;;8.72;63.01
40982;BME280;26708;50.304;19.028;2023-05-07T07:57:56;98846.31;;;8.57;63.38
40982;BME280;26708;50.304;19.028;2023-05-07T08:00:01;98678.34;;;7.54;63.26
40982;BME280;26708;50.304;19.028;2023-05-07T08:02:18;98886.41;;;8.66;63.59
40982;BME280;26708;50.304;19.028;2023-05-07T08:04:32;98675.56;;;7.36;63.81
40982;BME280;26708;50.304;19.028;2023-05-07T08:06:56;98603.25;;;7.11;63.50
40982;BME280;26708;50.304;19.028;2023-05-07T08:09:01;98653.22;;;7.54;63.45
40982;BME280;26708;50.304;19.028;2023-05-07T08:11:09;98832.41;;;8.58;63.46
40982;BME280;26708;50.304;19.028;2023-05-07T08:13:15;98828.00;;;8.52;63.08
40982;BME280;26708;50.304;19.028;2023-05-07T08:15:25;98652.41;;;7.61;63.62
40982;BME280;26708;50.304;19.028;2023-05-07T08:17:31;98628.88;;;7.54;63.04
40982;BME280;26708;50.304;19.028;2023-05-07T08:19:39;98807.28;;;8.69;62.69
40982;BME280;26708;50.304;19.028;2023-05-07T08:21:48;98866.69;;;8.98;62.45
40982;BME280;26708;50.304;19.028;2023-05-07T08:23:59;98660.38;;;7.77;62.56
40982;BME280;26708;50.304;19.028;2023-05-07T08:26:08;98875.34;;;8.91;62.84
40982;BME280;26708;50.304;19.028;2023-05-07T08:28:13;98891.97;;;9.04;62.84
40982;BME280;26708;50.304;19.028;2023-05-07T08:30:18;98888.53;;;9.09;62.73
40982;BME280;26708;50.304;19.028;2023-05-07T08:32:23;98886.94;;;9.22;62.87
40982;BME280;26708;50.304;19.028;2023-05-07T08:34:28;98901.72;;;9.24;62.14
40982;BME280;26708;50.304;19.028;2023-05-07T08:36:39;98902.56;;;9.19;61.91
40982;BME280;26708;50.304;19.028;2023-05-07T08:38:48;98901.66;;;9.15;61.68
40982;BME280;26708;50.304;19.028;2023-05-07T08:40:52;98782.56;;;8.29;62.11
40982;BME280;26708;50.304;19.028;2023-05-07T08:42:59;98843.81;;;8.69;62.17
40982;BME280;26708;50.304;19.028;2023-05-07T08:45:09;98883.03;;;8.78;62.29
40982;BME280;26708;50.304;19.028;2023-05-07T08:47:19;98908.44;;;8.97;62.30
40982;BME280;26708;50.304;19.028;2023-05-07T08:49:28;98892.66;;;8.83;62.19
40982;BME280;26708;50.304;19.028;2023-05-07T08:51:34;98890.84;;;8.76;62.27
40982;BME280;26708;50.304;19.028;2023-05-07T08:53:43;98859.41;;;8.60;61.90
40982;BME280;26708;50.304;19.028;2023-05-07T08:55:53;98908.34;;;8.85;62.42
40982;BME280;26708;50.304;19.028;2023-05-07T08:57:59;98777.09;;;8.08;62.21
40982;BME280;26708;50.304;19.028;2023-05-07T09:00:07;98898.69;;;8.76;62.24
40982;BME280;26708;50.304;19.028;2023-05-07T09:02:14;98894.31;;;8.72;62.66
40982;BME280;26708;50.304;19.028;2023-05-07T09:04:19;98802.41;;;8.17;62.40
40982;BME280;26708;50.304;19.028;2023-05-07T09:06:24;98906.56;;;8.82;62.27
40982;BME280;26708;50.304;19.028;2023-05-07T09:08:32;98935.44;;;8.97;62.32
40982;BME280;26708;50.304;19.028;2023-05-07T09:10:42;98944.94;;;8.89;62.51
40982;BME280;26708;50.304;19.028;2023-05-07T09:12:47;98946.59;;;8.84;62.82
40982;BME280;26708;50.304;19.028;2023-05-07T09:14:53;98947.47;;;8.83;62.83
40982;BME280;26708;50.304;19.028;2023-05-07T09:16:58;98885.28;;;8.40;62.81
40982;BME280;26708;50.304;19.028;2023-05-07T09:19:02;98949.09;;;8.74;62.99
40982;BME280;26708;50.304;19.028;2023-05-07T09:21:10;98949.91;;;8.68;63.31
40982;BME280;26708;50.304;19.028;2023-05-07T09:23:15;98948.19;;;8.70;63.52
40982;BME280;26708;50.304;19.028;2023-05-07T09:25:28;98891.31;;;8.38;63.19
40982;BME280;26708;50.304;19.028;2023-05-07T09:27:42;98853.72;;;8.21;63.27
40982;BME280;26708;50.304;19.028;2023-05-07T09:29:47;98952.69;;;8.83;63.12
40982;BME280;26708;50.304;19.028;2023-05-07T09:31:51;98836.31;;;8.18;62.97
40982;BME280;26708;50.304;19.028;2023-05-07T09:33:57;98887.13;;;8.52;62.98
40982;BME280;26708;50.304;19.028;2023-05-07T09:36:06;98860.97;;;8.47;62.98
40982;BME280;26708;50.304;19.028;2023-05-07T09:38:14;98952.03;;;9.02;62.30
40982;BME280;26708;50.304;19.028;2023-05-07T09:40:30;98946.75;;;8.96;62.22
40982;BME280;26708;50.304;19.028;2023-05-07T09:42:42;98968.56;;;9.04;62.26
40982;BME280;26708;50.304;19.028;2023-05-07T09:44:48;98939.56;;;8.76;62.04
40982;BME280;26708;50.304;19.028;2023-05-07T09:47:00;98971.88;;;8.87;62.14
40982;BME280;26708;50.304;19.028;2023-05-07T09:49:20;98969.19;;;8.81;62.42
40982;BME280;26708;50.304;19.028;2023-05-07T09:51:41;98964.75;;;8.74;62.73
40982;BME280;26708;50.304;19.028;2023-05-07T09:54:02;98906.97;;;8.38;62.78
40982;BME280;26708;50.304;19.028;2023-05-07T09:56:12;98916.59;;;8.43;63.13
40982;BME280;26708;50.304;19.028;2023-05-07T09:58:22;98941.19;;;8.63;62.80
40982;BME280;26708;50.304;19.028;2023-05-07T10:00:31;98974.41;;;8.79;62.74
40982;BME280;26708;50.304;19.028;2023-05-07T10:02:46;98978.72;;;8.76;62.69
40982;BME280;26708;50.304;19.028;2023-05-07T10:04:57;98814.94;;;7.75;63.11
40982;BME280;26708;50.304;19.028;2023-05-07T10:07:08;98985.56;;;8.69;63.23
40982;BME280;26708;50.304;19.028;2023-05-07T10:09:14;98986.50;;;8.73;63.05
40982;BME280;26708;50.304;19.028;2023-05-07T10:11:22;98787.00;;;7.64;63.10
40982;BME280;26708;50.304;19.028;2023-05-07T10:13:31;98784.47;;;7.70;63.05
40982;BME280;26708;50.304;19.028;2023-05-07T10:15:39;98992.03;;;9.03;62.93
40982;BME280;26708;50.304;19.028;2023-05-07T10:17:45;98979.03;;;9.06;62.76
40982;BME280;26708;50.304;19.028;2023-05-07T10:19:54;98999.28;;;9.29;62.53
40982;BME280;26708;50.304;19.028;2023-05-07T10:22:04;98925.84;;;8.96;61.86
40982;BME280;26708;50.304;19.028;2023-05-07T10:24:20;98947.00;;;9.25;61.29
40982;BME280;26708;50.304;19.028;2023-05-07T10:26:33;99001.22;;;9.50;60.50
40982;BME280;26708;50.304;19.028;2023-05-07T10:28:46;98922.38;;;8.94;60.64
40982;BME280;26708;50.304;19.028;2023-05-07T10:33:41;98950.00;;;8.76;60.85
40982;BME280;26708;50.304;19.028;2023-05-07T10:35:50;98877.59;;;8.57;60.58
40982;BME280;26708;50.304;19.028;2023-05-07T10:37:55;99007.00;;;9.19;61.10
40982;BME280;26708;50.304;19.028;2023-05-07T10:40:05;98980.72;;;9.01;61.74
40982;BME280;26708;50.304;19.028;2023-05-07T10:42:13;98874.78;;;8.37;61.64
40982;BME280;26708;50.304;19.028;2023-05-07T10:44:29;98934.34;;;8.77;61.52
40982;BME280;26708;50.304;19.028;2023-05-07T10:46:41;99018.41;;;9.25;61.43
40982;BME280;26708;50.304;19.028;2023-05-07T10:49:07;98901.13;;;8.61;61.52
40982;BME280;26708;50.304;19.028;2023-05-07T10:51:41;98989.50;;;9.06;61.14
40982;BME280;26708;50.304;19.028;2023-05-07T10:54:19;99013.94;;;9.14;61.45
40982;BME280;26708;50.304;19.028;2023-05-07T10:56:32;99018.22;;;9.06;61.67
40982;BME280;26708;50.304;19.028;2023-05-07T10:58:43;98986.56;;;8.79;61.98
40982;BME280;26708;50.304;19.028;2023-05-07T11:00:59;99025.72;;;8.82;62.49
40982;BME280;26708;50.304;19.028;2023-05-07T11:03:13;98933.63;;;8.17;62.87
40982;BME280;26708;50.304;19.028;2023-05-07T11:05:26;98986.25;;;8.53;62.76
40982;BME280;26708;50.304;19.028;2023-05-07T11:07:54;99019.50;;;8.68;62.70
40982;BME280;26708;50.304;19.028;2023-05-07T11:10:07;98964.13;;;8.24;62.59
40982;BME280;26708;50.304;19.028;2023-05-07T11:12:47;98983.50;;;8.41;63.08
40982;BME280;26708;50.304;19.028;2023-05-07T11:14:58;98995.94;;;8.62;63.33
40982;BME280;26708;50.304;19.028;2023-05-07T11:17:12;99031.88;;;8.87;62.90